sensor_id;sensor_type;location;lat;lon;timestamp;P1;durP1;ratioP1;P2;durP2;ratioP2
65855;SDS011;52631;42.208;24.656;2023-08-07T00:00:41;1.75;;;0.60;;
65855;SDS011;52631;42.208;24.656;2023-08-07T00:03:06;2.00;;;0.75;;
65855;SDS011;52631;42.208;24.656;2023-08-07T00:05:32;1.10;;;0.60;;
65855;SDS011;52631;42.208;24.656;2023-08-07T00:07:57;1.35;;;0.57;;
65855;SDS011;52631;42.208;24.656;2023-08-07T00:10:23;2.13;;;0.70;;
65855;SDS011;52631;42.208;24.656;2023-08-07T00:12:49;1.40;;;0.70;;
65855;SDS011;52631;42.208;24.656;2023-08-07T00:15:15;1.35;;;0.60;;
65855;SDS011;52631;42.208;24.656;2023-08-07T00:17:40;0.68;;;0.43;;
65855;SDS011;52631;42.208;24.656;2023-08-07T00:20:06;1.60;;;0.70;;
65855;SDS011;52631;42.208;24.656;2023-08-07T00:22:32;1.80;;;0.50;;
65855;SDS011;52631;42.208;24.656;2023-08-07T00:24:58;2.80;;;0.88;;
65855;SDS011;52631;42.208;24.656;2023-08-07T00:27:23;1.55;;;0.70;;
65855;SDS011;52631;42.208;24.656;2023-08-07T00:29:48;1.67;;;0.73;;
65855;SDS011;52631;42.208;24.656;2023-08-07T00:32:14;1.50;;;0.68;;
65855;SDS011;52631;42.208;24.656;2023-08-07T00:34:39;1.75;;;0.80;;
65855;SDS011;52631;42.208;24.656;2023-08-07T00:37:05;1.42;;;0.70;;
65855;SDS011;52631;42.208;24.656;2023-08-07T00:39:30;1.77;;;0.70;;
65855;SDS011;52631;42.208;24.656;2023-08-07T00:41:56;1.67;;;0.70;;
65855;SDS011;52631;42.208;24.656;2023-08-07T00:44:21;1.55;;;0.70;;
65855;SDS011;52631;42.208;24.656;2023-08-07T00:46:48;1.50;;;0.70;;
65855;SDS011;52631;42.208;24.656;2023-08-07T00:49:14;1.90;;;0.60;;
65855;SDS011;52631;42.208;24.656;2023-08-07T00:51:39;1.20;;;0.65;;
65855;SDS011;52631;42.208;24.656;2023-08-07T00:54:05;2.00;;;0.80;;
65855;SDS011;52631;42.208;24.656;2023-08-07T00:56:31;2.50;;;0.73;;
65855;SDS011;52631;42.208;24.656;2023-08-07T00:58:58;3.50;;;0.77;;
65855;SDS011;52631;42.208;24.656;2023-08-07T01:01:24;2.35;;;0.80;;
65855;SDS011;52631;42.208;24.656;2023-08-07T01:03:50;1.80;;;0.82;;
65855;SDS011;52631;42.208;24.656;2023-08-07T01:06:15;2.33;;;1.08;;
65855;SDS011;52631;42.208;24.656;2023-08-07T01:08:41;2.08;;;0.77;;
65855;SDS011;52631;42.208;24.656;2023-08-07T01:11:20;1.35;;;0.80;;
65855;SDS011;52631;42.208;24.656;2023-08-07T01:16:18;2.08;;;0.85;;
65855;SDS011;52631;42.208;24.656;2023-08-07T01:18:56;2.03;;;0.90;;
65855;SDS011;52631;42.208;24.656;2023-08-07T01:21:22;1.67;;;0.82;;
65855;SDS011;52631;42.208;24.656;2023-08-07T01:23:48;2.85;;;1.23;;
65855;SDS011;52631;42.208;24.656;2023-08-07T01:26:15;2.60;;;1.33;;
65855;SDS011;52631;42.208;24.656;2023-08-07T01:28:46;2.22;;;1.10;;
65855;SDS011;52631;42.208;24.656;2023-08-07T01:31:31;2.42;;;1.30;;
65855;SDS011;52631;42.208;24.656;2023-08-07T01:34:02;2.17;;;1.17;;
65855;SDS011;52631;42.208;24.656;2023-08-07T01:36:29;2.83;;;1.20;;
65855;SDS011;52631;42.208;24.656;2023-08-07T01:38:55;3.20;;;1.20;;
65855;SDS011;52631;42.208;24.656;2023-08-07T01:41:22;2.58;;;1.30;;
65855;SDS011;52631;42.208;24.656;2023-08-07T01:43:48;3.50;;;1.40;;
65855;SDS011;52631;42.208;24.656;2023-08-07T01:46:13;2.85;;;1.50;;
65855;SDS011;52631;42.208;24.656;2023-08-07T01:48:39;3.20;;;1.90;;
65855;SDS011;52631;42.208;24.656;2023-08-07T01:51:04;3.50;;;1.73;;
65855;SDS011;52631;42.208;24.656;2023-08-07T01:53:30;3.00;;;1.70;;
65855;SDS011;52631;42.208;24.656;2023-08-07T01:55:56;2.70;;;1.67;;
65855;SDS011;52631;42.208;24.656;2023-08-07T01:58:21;2.85;;;1.58;;
65855;SDS011;52631;42.208;24.656;2023-08-07T02:00:47;3.10;;;1.58;;
65855;SDS011;52631;42.208;24.656;2023-08-07T02:03:13;2.72;;;1.63;;
65855;SDS011;52631;42.208;24.656;2023-08-07T02:05:38;2.58;;;1.55;;
65855;SDS011;52631;42.208;24.656;2023-08-07T02:08:03;3.42;;;1.60;;
65855;SDS011;52631;42.208;24.656;2023-08-07T02:10:29;3.10;;;1.67;;
65855;SDS011;52631;42.208;24.656;2023-08-07T02:12:57;2.95;;;1.80;;
65855;SDS011;52631;42.208;24.656;2023-08-07T02:15:22;3.35;;;1.77;;
65855;SDS011;52631;42.208;24.656;2023-08-07T02:17:48;3.53;;;2.08;;
65855;SDS011;52631;42.208;24.656;2023-08-07T02:20:13;3.60;;;2.22;;
65855;SDS011;52631;42.208;24.656;2023-08-07T02:22:39;3.28;;;1.90;;
65855;SDS011;52631;42.208;24.656;2023-08-07T02:25:04;3.47;;;1.90;;
65855;SDS011;52631;42.208;24.656;2023-08-07T02:27:30;2.92;;;1.77;;
65855;SDS011;52631;42.208;24.656;2023-08-07T02:29:55;4.20;;;2.17;;
65855;SDS011;52631;42.208;24.656;2023-08-07T02:32:21;3.15;;;1.98;;
65855;SDS011;52631;42.208;24.656;2023-08-07T02:34:46;2.97;;;1.65;;
65855;SDS011;52631;42.208;24.656;2023-08-07T02:37:12;3.60;;;2.03;;
65855;SDS011;52631;42.208;24.656;2023-08-07T02:39:37;3.22;;;2.03;;
65855;SDS011;52631;42.208;24.656;2023-08-07T02:42:03;4.30;;;1.90;;
65855;SDS011;52631;42.208;24.656;2023-08-07T02:44:28;5.22;;;2.00;;
65855;SDS011;52631;42.208;24.656;2023-08-07T02:46:54;3.85;;;1.98;;
65855;SDS011;52631;42.208;24.656;2023-08-07T02:49:19;3.85;;;2.05;;
65855;SDS011;52631;42.208;24.656;2023-08-07T02:51:45;4.07;;;2.20;;
65855;SDS011;52631;42.208;24.656;2023-08-07T02:54:10;3.80;;;2.00;;
65855;SDS011;52631;42.208;24.656;2023-08-07T02:56:36;4.28;;;2.38;;
65855;SDS011;52631;42.208;24.656;2023-08-07T02:59:01;2.85;;;1.70;;
65855;SDS011;52631;42.208;24.656;2023-08-07T03:01:27;4.22;;;2.10;;
65855;SDS011;52631;42.208;24.656;2023-08-07T03:03:52;3.80;;;2.22;;
65855;SDS011;52631;42.208;24.656;2023-08-07T03:06:18;3.92;;;2.05;;
65855;SDS011;52631;42.208;24.656;2023-08-07T03:08:43;4.15;;;2.20;;
65855;SDS011;52631;42.208;24.656;2023-08-07T03:11:09;3.50;;;2.00;;
65855;SDS011;52631;42.208;24.656;2023-08-07T03:13:34;5.22;;;2.10;;
65855;SDS011;52631;42.208;24.656;2023-08-07T03:16:01;3.28;;;1.92;;
65855;SDS011;52631;42.208;24.656;2023-08-07T03:18:27;3.65;;;2.10;;
65855;SDS011;52631;42.208;24.656;2023-08-07T03:20:54;3.25;;;2.05;;
65855;SDS011;52631;42.208;24.656;2023-08-07T03:23:20;3.60;;;2.03;;
65855;SDS011;52631;42.208;24.656;2023-08-07T03:25:45;3.30;;;2.00;;
65855;SDS011;52631;42.208;24.656;2023-08-07T03:28:11;5.30;;;1.90;;
65855;SDS011;52631;42.208;24.656;2023-08-07T03:30:36;3.40;;;2.15;;
65855;SDS011;52631;42.208;24.656;2023-08-07T03:33:03;3.45;;;2.10;;
65855;SDS011;52631;42.208;24.656;2023-08-07T03:35:28;4.72;;;2.00;;
65855;SDS011;52631;42.208;24.656;2023-08-07T03:37:54;3.90;;;2.38;;
65855;SDS011;52631;42.208;24.656;2023-08-07T03:40:19;3.72;;;2.40;;
65855;SDS011;52631;42.208;24.656;2023-08-07T03:42:44;4.38;;;2.03;;
65855;SDS011;52631;42.208;24.656;2023-08-07T03:45:10;4.10;;;2.35;;
65855;SDS011;52631;42.208;24.656;2023-08-07T03:47:35;3.70;;;2.28;;
65855;SDS011;52631;42.208;24.656;2023-08-07T03:50:01;4.68;;;1.90;;
65855;SDS011;52631;42.208;24.656;2023-08-07T03:52:26;3.47;;;2.30;;
65855;SDS011;52631;42.208;24.656;2023-08-07T03:54:52;3.50;;;2.00;;
65855;SDS011;52631;42.208;24.656;2023-08-07T03:57:17;3.97;;;2.05;;
65855;SDS011;52631;42.208;24.656;2023-08-07T03:59:43;3.60;;;2.10;;
65855;SDS011;52631;42.208;24.656;2023-08-07T04:02:08;4.53;;;1.88;;
65855;SDS011;52631;42.208;24.656;2023-08-07T04:04:34;4.72;;;2.10;;
65855;SDS011;52631;42.208;24.656;2023-08-07T04:06:59;4.07;;;2.25;;
65855;SDS011;52631;42.208;24.656;2023-08-07T04:09:24;3.47;;;2.45;;
65855;SDS011;52631;42.208;24.656;2023-08-07T04:11:50;6.35;;;2.45;;
65855;SDS011;52631;42.208;24.656;2023-08-07T04:14:16;3.25;;;1.80;;
65855;SDS011;52631;42.208;24.656;2023-08-07T04:16:41;3.70;;;2.22;;
65855;SDS011;52631;42.208;24.656;2023-08-07T04:19:07;3.55;;;2.25;;
65855;SDS011;52631;42.208;24.656;2023-08-07T04:21:32;3.20;;;1.98;;
65855;SDS011;52631;42.208;24.656;2023-08-07T04:23:58;6.55;;;1.88;;
65855;SDS011;52631;42.208;24.656;2023-08-07T04:26:25;5.50;;;1.90;;
65855;SDS011;52631;42.208;24.656;2023-08-07T04:28:51;3.78;;;1.80;;
65855;SDS011;52631;42.208;24.656;2023-08-07T04:31:16;3.13;;;1.95;;
65855;SDS011;52631;42.208;24.656;2023-08-07T04:33:42;4.72;;;2.08;;
65855;SDS011;52631;42.208;24.656;2023-08-07T04:36:07;4.07;;;1.60;;
65855;SDS011;52631;42.208;24.656;2023-08-07T04:38:32;4.50;;;1.63;;
65855;SDS011;52631;42.208;24.656;2023-08-07T04:40:58;2.85;;;1.33;;
65855;SDS011;52631;42.208;24.656;2023-08-07T04:43:23;3.55;;;1.58;;
65855;SDS011;52631;42.208;24.656;2023-08-07T04:45:49;3.75;;;1.60;;
65855;SDS011;52631;42.208;24.656;2023-08-07T04:48:14;2.80;;;1.40;;
65855;SDS011;52631;42.208;24.656;2023-08-07T04:50:40;4.20;;;1.90;;
65855;SDS011;52631;42.208;24.656;2023-08-07T04:53:06;4.45;;;1.98;;
65855;SDS011;52631;42.208;24.656;2023-08-07T04:55:31;3.35;;;1.80;;
65855;SDS011;52631;42.208;24.656;2023-08-07T04:57:57;3.00;;;1.70;;
65855;SDS011;52631;42.208;24.656;2023-08-07T05:00:23;4.65;;;1.90;;
65855;SDS011;52631;42.208;24.656;2023-08-07T05:02:49;3.88;;;1.75;;
65855;SDS011;52631;42.208;24.656;2023-08-07T05:05:15;2.72;;;1.70;;
65855;SDS011;52631;42.208;24.656;2023-08-07T05:07:41;4.65;;;1.90;;
65855;SDS011;52631;42.208;24.656;2023-08-07T05:10:06;3.45;;;1.85;;
65855;SDS011;52631;42.208;24.656;2023-08-07T05:12:33;2.90;;;1.58;;
65855;SDS011;52631;42.208;24.656;2023-08-07T05:14:58;5.35;;;1.80;;
65855;SDS011;52631;42.208;24.656;2023-08-07T05:17:24;3.33;;;1.90;;
65855;SDS011;52631;42.208;24.656;2023-08-07T05:19:49;4.15;;;1.88;;
65855;SDS011;52631;42.208;24.656;2023-08-07T05:22:15;3.33;;;1.90;;
65855;SDS011;52631;42.208;24.656;2023-08-07T05:24:40;3.60;;;2.10;;
65855;SDS011;52631;42.208;24.656;2023-08-07T05:27:07;3.70;;;1.92;;
65855;SDS011;52631;42.208;24.656;2023-08-07T05:29:33;3.88;;;1.80;;
65855;SDS011;52631;42.208;24.656;2023-08-07T05:32:11;3.17;;;1.70;;
65855;SDS011;52631;42.208;24.656;2023-08-07T05:34:37;4.38;;;2.15;;
65855;SDS011;52631;42.208;24.656;2023-08-07T05:37:03;3.20;;;1.83;;
65855;SDS011;52631;42.208;24.656;2023-08-07T05:39:29;3.40;;;2.20;;
65855;SDS011;52631;42.208;24.656;2023-08-07T05:41:54;3.25;;;1.90;;
65855;SDS011;52631;42.208;24.656;2023-08-07T05:44:22;2.78;;;1.63;;
65855;SDS011;52631;42.208;24.656;2023-08-07T05:46:50;2.95;;;1.70;;
65855;SDS011;52631;42.208;24.656;2023-08-07T05:49:16;3.03;;;1.77;;
65855;SDS011;52631;42.208;24.656;2023-08-07T05:51:42;4.13;;;2.10;;
65855;SDS011;52631;42.208;24.656;2023-08-07T05:54:07;3.00;;;1.73;;
65855;SDS011;52631;42.208;24.656;2023-08-07T05:56:33;2.70;;;1.75;;
65855;SDS011;52631;42.208;24.656;2023-08-07T05:58:58;2.95;;;1.75;;
65855;SDS011;52631;42.208;24.656;2023-08-07T06:01:24;3.42;;;1.90;;
65855;SDS011;52631;42.208;24.656;2023-08-07T06:03:55;5.35;;;1.77;;
65855;SDS011;52631;42.208;24.656;2023-08-07T06:06:21;3.80;;;1.60;;
65855;SDS011;52631;42.208;24.656;2023-08-07T06:08:46;3.67;;;1.88;;
65855;SDS011;52631;42.208;24.656;2023-08-07T06:11:12;2.80;;;1.58;;
65855;SDS011;52631;42.208;24.656;2023-08-07T06:13:37;3.50;;;1.80;;
65855;SDS011;52631;42.208;24.656;2023-08-07T06:16:02;2.65;;;1.70;;
65855;SDS011;52631;42.208;24.656;2023-08-07T06:18:28;3.30;;;1.92;;
65855;SDS011;52631;42.208;24.656;2023-08-07T06:20:55;2.85;;;1.70;;
65855;SDS011;52631;42.208;24.656;2023-08-07T06:23:21;4.95;;;1.92;;
65855;SDS011;52631;42.208;24.656;2023-08-07T06:25:46;3.85;;;1.92;;
65855;SDS011;52631;42.208;24.656;2023-08-07T06:28:12;3.70;;;1.80;;
65855;SDS011;52631;42.208;24.656;2023-08-07T06:30:37;4.13;;;1.88;;
65855;SDS011;52631;42.208;24.656;2023-08-07T06:33:03;3.72;;;1.80;;
65855;SDS011;52631;42.208;24.656;2023-08-07T06:35:29;3.05;;;1.92;;
65855;SDS011;52631;42.208;24.656;2023-08-07T06:37:54;5.22;;;1.80;;
65855;SDS011;52631;42.208;24.656;2023-08-07T06:40:20;4.72;;;1.95;;
65855;SDS011;52631;42.208;24.656;2023-08-07T06:42:45;4.97;;;2.15;;
65855;SDS011;52631;42.208;24.656;2023-08-07T06:45:10;2.75;;;1.60;;
65855;SDS011;52631;42.208;24.656;2023-08-07T06:47:36;3.53;;;1.80;;
65855;SDS011;52631;42.208;24.656;2023-08-07T06:50:01;3.10;;;1.92;;
65855;SDS011;52631;42.208;24.656;2023-08-07T06:52:27;3.85;;;2.20;;
65855;SDS011;52631;42.208;24.656;2023-08-07T06:54:53;3.40;;;1.85;;
65855;SDS011;52631;42.208;24.656;2023-08-07T06:57:18;3.05;;;1.80;;
65855;SDS011;52631;42.208;24.656;2023-08-07T06:59:43;4.32;;;1.50;;
65855;SDS011;52631;42.208;24.656;2023-08-07T07:02:09;2.60;;;1.63;;
65855;SDS011;52631;42.208;24.656;2023-08-07T07:04:34;3.25;;;1.60;;
65855;SDS011;52631;42.208;24.656;2023-08-07T07:07:01;3.90;;;1.77;;
65855;SDS011;52631;42.208;24.656;2023-08-07T07:09:27;3.00;;;1.60;;
65855;SDS011;52631;42.208;24.656;2023-08-07T07:11:53;3.65;;;1.60;;
65855;SDS011;52631;42.208;24.656;2023-08-07T07:14:19;3.10;;;1.50;;
65855;SDS011;52631;42.208;24.656;2023-08-07T07:16:45;4.00;;;1.52;;
65855;SDS011;52631;42.208;24.656;2023-08-07T07:19:10;3.88;;;1.45;;
65855;SDS011;52631;42.208;24.656;2023-08-07T07:21:35;2.92;;;1.48;;
65855;SDS011;52631;42.208;24.656;2023-08-07T07:24:01;2.88;;;1.65;;
65855;SDS011;52631;42.208;24.656;2023-08-07T07:26:27;3.60;;;1.25;;
65855;SDS011;52631;42.208;24.656;2023-08-07T07:28:53;2.50;;;1.52;;
65855;SDS011;52631;42.208;24.656;2023-08-07T07:31:19;3.78;;;1.40;;
65855;SDS011;52631;42.208;24.656;2023-08-07T07:33:44;3.35;;;1.52;;
65855;SDS011;52631;42.208;24.656;2023-08-07T07:36:15;2.03;;;1.40;;
65855;SDS011;52631;42.208;24.656;2023-08-07T07:38:43;2.60;;;1.27;;
65855;SDS011;52631;42.208;24.656;2023-08-07T07:41:10;2.40;;;1.20;;
65855;SDS011;52631;42.208;24.656;2023-08-07T07:43:36;2.25;;;1.20;;
65855;SDS011;52631;42.208;24.656;2023-08-07T07:46:02;1.90;;;1.20;;
65855;SDS011;52631;42.208;24.656;2023-08-07T07:48:28;2.35;;;1.10;;
65855;SDS011;52631;42.208;24.656;2023-08-07T07:51:02;2.38;;;1.00;;
65855;SDS011;52631;42.208;24.656;2023-08-07T07:53:29;1.90;;;1.10;;
65855;SDS011;52631;42.208;24.656;2023-08-07T07:55:55;1.63;;;1.05;;
65855;SDS011;52631;42.208;24.656;2023-08-07T07:58:20;2.30;;;1.27;;
65855;SDS011;52631;42.208;24.656;2023-08-07T08:00:46;1.60;;;1.00;;
65855;SDS011;52631;42.208;24.656;2023-08-07T08:03:12;1.80;;;1.00;;
65855;SDS011;52631;42.208;24.656;2023-08-07T08:05:38;2.55;;;1.13;;
65855;SDS011;52631;42.208;24.656;2023-08-07T08:08:05;2.03;;;1.17;;
65855;SDS011;52631;42.208;24.656;2023-08-07T08:10:31;1.77;;;1.17;;
65855;SDS011;52631;42.208;24.656;2023-08-07T08:12:57;1.90;;;1.10;;
65855;SDS011;52631;42.208;24.656;2023-08-07T08:15:22;2.92;;;1.17;;
65855;SDS011;52631;42.208;24.656;2023-08-07T08:17:48;2.55;;;1.10;;
65855;SDS011;52631;42.208;24.656;2023-08-07T08:20:14;1.58;;;0.88;;
65855;SDS011;52631;42.208;24.656;2023-08-07T08:22:43;2.55;;;1.20;;
65855;SDS011;52631;42.208;24.656;2023-08-07T08:25:09;1.92;;;0.77;;
65855;SDS011;52631;42.208;24.656;2023-08-07T08:27:36;1.65;;;0.93;;
65855;SDS011;52631;42.208;24.656;2023-08-07T08:30:05;1.70;;;1.10;;
65855;SDS011;52631;42.208;24.656;2023-08-07T08:32:31;1.88;;;0.90;;
65855;SDS011;52631;42.208;24.656;2023-08-07T08:34:57;1.63;;;0.90;;
65855;SDS011;52631;42.208;24.656;2023-08-07T08:37:22;1.45;;;0.80;;
65855;SDS011;52631;42.208;24.656;2023-08-07T08:39:48;1.83;;;0.95;;
65855;SDS011;52631;42.208;24.656;2023-08-07T08:42:13;1.60;;;0.82;;
65855;SDS011;52631;42.208;24.656;2023-08-07T08:44:40;1.77;;;0.90;;
65855;SDS011;52631;42.208;24.656;2023-08-07T08:47:06;1.80;;;1.02;;
65855;SDS011;52631;42.208;24.656;2023-08-07T08:49:35;2.53;;;0.98;;
65855;SDS011;52631;42.208;24.656;2023-08-07T08:52:03;2.42;;;1.00;;
65855;SDS011;52631;42.208;24.656;2023-08-07T08:54:29;1.67;;;0.90;;
65855;SDS011;52631;42.208;24.656;2023-08-07T08:56:55;1.80;;;1.10;;
65855;SDS011;52631;42.208;24.656;2023-08-07T08:59:22;2.97;;;0.80;;
65855;SDS011;52631;42.208;24.656;2023-08-07T09:01:48;1.13;;;0.73;;
65855;SDS011;52631;42.208;24.656;2023-08-07T09:04:18;1.63;;;0.98;;
65855;SDS011;52631;42.208;24.656;2023-08-07T09:06:43;2.78;;;0.90;;
65855;SDS011;52631;42.208;24.656;2023-08-07T09:09:09;1.85;;;0.80;;
65855;SDS011;52631;42.208;24.656;2023-08-07T09:11:36;1.98;;;0.95;;
65855;SDS011;52631;42.208;24.656;2023-08-07T09:14:02;4.72;;;1.00;;
65855;SDS011;52631;42.208;24.656;2023-08-07T09:16:28;1.30;;;0.70;;
65855;SDS011;52631;42.208;24.656;2023-08-07T09:18:55;2.53;;;0.98;;
65855;SDS011;52631;42.208;24.656;2023-08-07T09:21:20;1.42;;;0.80;;
65855;SDS011;52631;42.208;24.656;2023-08-07T09:23:46;1.25;;;0.85;;
65855;SDS011;52631;42.208;24.656;2023-08-07T09:26:12;1.73;;;0.88;;
65855;SDS011;52631;42.208;24.656;2023-08-07T09:28:37;2.00;;;0.80;;
65855;SDS011;52631;42.208;24.656;2023-08-07T09:31:05;2.05;;;0.90;;
65855;SDS011;52631;42.208;24.656;2023-08-07T09:33:31;1.70;;;0.88;;
65855;SDS011;52631;42.208;24.656;2023-08-07T09:35:57;1.42;;;0.80;;
65855;SDS011;52631;42.208;24.656;2023-08-07T09:38:24;1.40;;;0.80;;
65855;SDS011;52631;42.208;24.656;2023-08-07T09:40:51;3.17;;;0.85;;
65855;SDS011;52631;42.208;24.656;2023-08-07T09:43:20;1.80;;;0.80;;
65855;SDS011;52631;42.208;24.656;2023-08-07T09:45:47;1.75;;;0.93;;
65855;SDS011;52631;42.208;24.656;2023-08-07T09:48:15;2.42;;;1.13;;
65855;SDS011;52631;42.208;24.656;2023-08-07T09:53:10;1.57;;;0.90;;
65855;SDS011;52631;42.208;24.656;2023-08-07T09:55:36;1.55;;;0.82;;
65855;SDS011;52631;42.208;24.656;2023-08-07T09:58:01;1.58;;;0.80;;
65855;SDS011;52631;42.208;24.656;2023-08-07T10:00:27;1.27;;;0.90;;
65855;SDS011;52631;42.208;24.656;2023-08-07T10:02:58;4.32;;;1.00;;
65855;SDS011;52631;42.208;24.656;2023-08-07T10:05:24;3.92;;;1.05;;
65855;SDS011;52631;42.208;24.656;2023-08-07T10:07:50;1.58;;;0.70;;
65855;SDS011;52631;42.208;24.656;2023-08-07T10:10:16;2.00;;;0.73;;
65855;SDS011;52631;42.208;24.656;2023-08-07T10:12:42;1.90;;;1.10;;
65855;SDS011;52631;42.208;24.656;2023-08-07T10:15:11;2.15;;;0.80;;
65855;SDS011;52631;42.208;24.656;2023-08-07T10:17:36;2.60;;;0.73;;
65855;SDS011;52631;42.208;24.656;2023-08-07T10:20:02;1.88;;;0.82;;
65855;SDS011;52631;42.208;24.656;2023-08-07T10:22:29;1.45;;;0.80;;
65855;SDS011;52631;42.208;24.656;2023-08-07T10:24:56;1.38;;;0.80;;
65855;SDS011;52631;42.208;24.656;2023-08-07T10:27:22;1.75;;;0.80;;
65855;SDS011;52631;42.208;24.656;2023-08-07T10:29:49;2.85;;;1.05;;
65855;SDS011;52631;42.208;24.656;2023-08-07T10:32:17;2.38;;;0.82;;
65855;SDS011;52631;42.208;24.656;2023-08-07T10:34:54;2.10;;;0.90;;
65855;SDS011;52631;42.208;24.656;2023-08-07T10:40:03;1.90;;;0.82;;
65855;SDS011;52631;42.208;24.656;2023-08-07T10:42:32;2.60;;;0.90;;
65855;SDS011;52631;42.208;24.656;2023-08-07T10:45:16;2.45;;;1.00;;
65855;SDS011;52631;42.208;24.656;2023-08-07T10:47:42;1.50;;;0.90;;
65855;SDS011;52631;42.208;24.656;2023-08-07T10:50:09;1.80;;;0.80;;
65855;SDS011;52631;42.208;24.656;2023-08-07T10:52:37;1.75;;;0.90;;
65855;SDS011;52631;42.208;24.656;2023-08-07T10:55:12;1.33;;;0.80;;
65855;SDS011;52631;42.208;24.656;2023-08-07T10:57:38;1.02;;;0.70;;
65855;SDS011;52631;42.208;24.656;2023-08-07T11:00:05;1.30;;;0.70;;
65855;SDS011;52631;42.208;24.656;2023-08-07T11:02:33;1.80;;;0.90;;
65855;SDS011;52631;42.208;24.656;2023-08-07T11:05:04;2.53;;;0.80;;
65855;SDS011;52631;42.208;24.656;2023-08-07T11:07:30;3.42;;;0.95;;
65855;SDS011;52631;42.208;24.656;2023-08-07T11:09:56;4.82;;;1.10;;
65855;SDS011;52631;42.208;24.656;2023-08-07T11:12:26;2.35;;;0.93;;
65855;SDS011;52631;42.208;24.656;2023-08-07T11:14:52;2.55;;;0.98;;
65855;SDS011;52631;42.208;24.656;2023-08-07T11:17:21;2.33;;;0.90;;
65855;SDS011;52631;42.208;24.656;2023-08-07T11:19:49;2.30;;;0.95;;
65855;SDS011;52631;42.208;24.656;2023-08-07T11:22:15;2.40;;;1.10;;
65855;SDS011;52631;42.208;24.656;2023-08-07T11:24:41;1.85;;;1.02;;
65855;SDS011;52631;42.208;24.656;2023-08-07T11:27:07;2.47;;;0.93;;
65855;SDS011;52631;42.208;24.656;2023-08-07T11:29:32;1.83;;;1.00;;
65855;SDS011;52631;42.208;24.656;2023-08-07T11:31:58;1.88;;;0.95;;
65855;SDS011;52631;42.208;24.656;2023-08-07T11:34:24;2.78;;;1.33;;
65855;SDS011;52631;42.208;24.656;2023-08-07T11:36:50;17.67;;;1.60;;
65855;SDS011;52631;42.208;24.656;2023-08-07T11:39:15;1.83;;;0.93;;
65855;SDS011;52631;42.208;24.656;2023-08-07T11:41:42;2.17;;;0.80;;
65855;SDS011;52631;42.208;24.656;2023-08-07T11:44:09;2.15;;;0.90;;
65855;SDS011;52631;42.208;24.656;2023-08-07T11:46:35;3.08;;;0.90;;
65855;SDS011;52631;42.208;24.656;2023-08-07T11:49:00;1.80;;;0.90;;
65855;SDS011;52631;42.208;24.656;2023-08-07T11:51:28;2.42;;;0.98;;
65855;SDS011;52631;42.208;24.656;2023-08-07T11:53:53;2.10;;;0.90;;
65855;SDS011;52631;42.208;24.656;2023-08-07T11:56:21;1.70;;;1.00;;
65855;SDS011;52631;42.208;24.656;2023-08-07T11:58:47;2.00;;;1.00;;
65855;SDS011;52631;42.208;24.656;2023-08-07T12:01:17;1.67;;;1.00;;
65855;SDS011;52631;42.208;24.656;2023-08-07T12:06:19;1.73;;;1.00;;
65855;SDS011;52631;42.208;24.656;2023-08-07T12:08:45;1.52;;;0.95;;
65855;SDS011;52631;42.208;24.656;2023-08-07T12:11:13;2.53;;;0.93;;
65855;SDS011;52631;42.208;24.656;2023-08-07T12:13:39;5.30;;;1.20;;
65855;SDS011;52631;42.208;24.656;2023-08-07T12:16:06;2.55;;;1.10;;
65855;SDS011;52631;42.208;24.656;2023-08-07T12:18:33;2.42;;;1.13;;
65855;SDS011;52631;42.208;24.656;2023-08-07T12:21:01;3.60;;;1.00;;
65855;SDS011;52631;42.208;24.656;2023-08-07T12:23:28;4.32;;;1.40;;
65855;SDS011;52631;42.208;24.656;2023-08-07T12:25:54;3.33;;;1.10;;
65855;SDS011;52631;42.208;24.656;2023-08-07T12:28:20;3.08;;;0.98;;
65855;SDS011;52631;42.208;24.656;2023-08-07T12:30:46;1.88;;;1.13;;
65855;SDS011;52631;42.208;24.656;2023-08-07T12:33:12;2.38;;;1.00;;
65855;SDS011;52631;42.208;24.656;2023-08-07T12:35:38;2.25;;;1.10;;
65855;SDS011;52631;42.208;24.656;2023-08-07T12:38:03;2.55;;;1.10;;
65855;SDS011;52631;42.208;24.656;2023-08-07T12:40:30;2.42;;;0.98;;
65855;SDS011;52631;42.208;24.656;2023-08-07T12:42:56;1.80;;;1.00;;
65855;SDS011;52631;42.208;24.656;2023-08-07T12:45:21;3.70;;;1.20;;
65855;SDS011;52631;42.208;24.656;2023-08-07T12:47:47;2.05;;;1.05;;
65855;SDS011;52631;42.208;24.656;2023-08-07T12:50:13;2.92;;;1.00;;
65855;SDS011;52631;42.208;24.656;2023-08-07T12:52:38;2.60;;;1.00;;
65855;SDS011;52631;42.208;24.656;2023-08-07T12:55:04;1.92;;;1.00;;
65855;SDS011;52631;42.208;24.656;2023-08-07T12:57:30;2.10;;;1.10;;
65855;SDS011;52631;42.208;24.656;2023-08-07T12:59:56;2.05;;;1.05;;
65855;SDS011;52631;42.208;24.656;2023-08-07T13:02:21;3.30;;;1.30;;
65855;SDS011;52631;42.208;24.656;2023-08-07T13:04:47;2.35;;;1.10;;
65855;SDS011;52631;42.208;24.656;2023-08-07T13:07:12;3.67;;;1.45;;
65855;SDS011;52631;42.208;24.656;2023-08-07T13:09:38;2.50;;;1.20;;
65855;SDS011;52631;42.208;24.656;2023-08-07T13:12:04;2.60;;;1.30;;
65855;SDS011;52631;42.208;24.656;2023-08-07T13:14:29;2.28;;;1.05;;
65855;SDS011;52631;42.208;24.656;2023-08-07T13:16:55;2.40;;;1.30;;
65855;SDS011;52631;42.208;24.656;2023-08-07T13:19:20;2.55;;;1.30;;
65855;SDS011;52631;42.208;24.656;2023-08-07T13:21:45;8.70;;;1.75;;
65855;SDS011;52631;42.208;24.656;2023-08-07T13:24:11;3.63;;;1.30;;
65855;SDS011;52631;42.208;24.656;2023-08-07T13:26:37;2.15;;;1.30;;
65855;SDS011;52631;42.208;24.656;2023-08-07T13:29:03;4.53;;;1.40;;
65855;SDS011;52631;42.208;24.656;2023-08-07T13:31:29;11.25;;;1.95;;
65855;SDS011;52631;42.208;24.656;2023-08-07T13:33:54;3.42;;;1.30;;
65855;SDS011;52631;42.208;24.656;2023-08-07T13:36:20;2.47;;;1.20;;
65855;SDS011;52631;42.208;24.656;2023-08-07T13:38:45;3.67;;;1.30;;
65855;SDS011;52631;42.208;24.656;2023-08-07T13:41:11;3.85;;;1.50;;
65855;SDS011;52631;42.208;24.656;2023-08-07T13:43:37;5.50;;;1.60;;
65855;SDS011;52631;42.208;24.656;2023-08-07T13:46:02;5.22;;;1.90;;
65855;SDS011;52631;42.208;24.656;2023-08-07T13:48:27;3.40;;;1.63;;
65855;SDS011;52631;42.208;24.656;2023-08-07T13:50:53;3.05;;;1.60;;
65855;SDS011;52631;42.208;24.656;2023-08-07T13:53:19;2.92;;;1.40;;
65855;SDS011;52631;42.208;24.656;2023-08-07T13:55:45;3.35;;;1.70;;
65855;SDS011;52631;42.208;24.656;2023-08-07T13:58:11;3.95;;;1.58;;
65855;SDS011;52631;42.208;24.656;2023-08-07T14:00:40;3.40;;;1.40;;
65855;SDS011;52631;42.208;24.656;2023-08-07T14:03:05;4.47;;;1.70;;
65855;SDS011;52631;42.208;24.656;2023-08-07T14:05:31;2.88;;;1.73;;
65855;SDS011;52631;42.208;24.656;2023-08-07T14:07:56;3.10;;;1.70;;
65855;SDS011;52631;42.208;24.656;2023-08-07T14:10:22;3.05;;;1.60;;
65855;SDS011;52631;42.208;24.656;2023-08-07T14:12:48;4.75;;;1.90;;
65855;SDS011;52631;42.208;24.656;2023-08-07T14:15:13;3.65;;;1.92;;
65855;SDS011;52631;42.208;24.656;2023-08-07T14:17:39;3.88;;;1.77;;
65855;SDS011;52631;42.208;24.656;2023-08-07T14:20:05;4.05;;;1.75;;
65855;SDS011;52631;42.208;24.656;2023-08-07T14:22:31;3.92;;;1.63;;
65855;SDS011;52631;42.208;24.656;2023-08-07T14:24:57;3.05;;;1.80;;
65855;SDS011;52631;42.208;24.656;2023-08-07T14:27:22;3.90;;;1.75;;
65855;SDS011;52631;42.208;24.656;2023-08-07T14:29:48;5.68;;;1.98;;
65855;SDS011;52631;42.208;24.656;2023-08-07T14:32:13;4.10;;;1.77;;
65855;SDS011;52631;42.208;24.656;2023-08-07T14:34:39;5.85;;;1.92;;
65855;SDS011;52631;42.208;24.656;2023-08-07T14:37:04;4.28;;;1.85;;